Česky Dansk Deutsch English Español Suomi Français Magyar Italiano Nederlands norsk Polski Português svenska Türkçe

 

Het Weer

Istanbul / Ataturk (Turkije)

19:20, 22 augustus 2016 (GMT)

NWNNE
WE
SWSSE
Home            
Istanbul / Ataturk Istanbul / Sabiha Gokcen Corlu Bursa Bursa / Yenisehir, Mil-Civ Bandirma Topel Tur-Afb Balikesir Eskisehir Burgas Canakkale Akhisar Alexandroupoli Airport Zonguldak Varna Usak Sivrihisar Mytilini Airport Afyon Izmir \ Kaklic Izmir / Cigli Limnos Airport Murted Tur-Afb

Om een weerknop op uw website of weblog te plaatsen, copieer onderstaande code en plak die in uw pagina. In het eerste vakje staat HTML-code, in het tweede vakje UBB-code.


Add to Google

Details

Wind speed:3 bf, 8 kn, 4.1 m/s, 9.2 miles/h, 14.8 km/h
Wind direction:N, 350°
Visibilidade global:Maior de 10000 m, 10 km, 32800 ft, 6.2 miles
Clouds:CAVOC
Temperatura:26°C, 79°F
Sensaço térmica:27°C, 81°F
Ponto de orvalho:20°C, 68°F
Pressão atmosférica:1011 hPa, 758.3 mmHg, 29.85 inHg, 0.998 atm
Humidade relativa:69.6 %
METAR:LTBA 221920Z 35008KT CAVOK 26/20 Q1011 NOSIG

Snelkoppelingen

Actuele weersinformatie van de hele wereld. Voeg locaties toe met het plus (+) symbool. Deze snelkoppelingen kunnen worden toegevoegd aan Google.

Lid van de Technetium groep

website free tracking
StatCounter NetStat W3C Validator

09-08-2022 09:38:20
astro.technetium.be money.technetium.be phote.technetium.be tafeltennistafel.technetium.be www.ligfiets.net